Time;durP1;ratioP1;P1;durP2;ratioP2;P2;SDS_P1;SDS_P2;PMS_P1;PMS_P2;Temp;Humidity;BMP_temperature;BMP_pressure;BME280_temperature;BME280_humidity;BME280_pressure;Samples;Min_cycle;Max_cycle;Signal;HPM_P1;HPM_P2
2023/04/29 00:00:05;;;;;;;27.43;20.17;;;;;;;14.67;66.11;100621.59;682838;28;1165;-77
2023/04/29 00:00:32;;;;;;;29.98;20.98;;;;;;;14.60;65.83;100622.41;682952;28;1048;-76
2023/04/29 00:00:52;;;;;;;28.37;20.67;;;;;;;14.59;65.82;100610.13;682843;28;1177;-77
2023/04/29 00:01:16;;;;;;;28.88;20.90;;;;;;;14.49;65.98;100615.31;683063;28;1189;-76
2023/04/29 00:01:36;;;;;;;29.02;21.55;;;;;;;14.37;66.31;100609.94;680004;29;1023;-77
2023/04/29 00:01:58;;;;;;;29.70;22.20;;;;;;;14.28;65.99;100605.50;680336;29;1150;-76
2023/04/29 00:02:19;;;;;;;29.38;22.20;;;;;;;14.33;66.55;100624.78;680240;29;1122;-78
2023/04/29 00:02:40;;;;;;;29.60;21.80;;;;;;;14.43;66.28;100614.38;680079;29;1072;-76
2023/04/29 00:03:01;;;;;;;31.55;22.30;;;;;;;14.31;66.62;100604.66;677715;29;1222;-77
2023/04/29 00:03:22;;;;;;;33.25;22.58;;;;;;;14.35;66.64;100627.41;680144;29;1064;-77
2023/04/29 00:03:43;;;;;;;33.55;23.85;;;;;;;14.23;66.70;100609.81;679554;29;1167;-77
2023/04/29 00:04:04;;;;;;;32.13;23.60;;;;;;;14.27;66.67;100618.59;683035;29;1012;-77
2023/04/29 00:04:25;;;;;;;31.30;23.38;;;;;;;14.16;66.75;100616.75;682684;29;1248;-78
2023/04/29 00:04:46;;;;;;;31.52;22.40;;;;;;;14.19;66.86;100610.66;680428;29;1145;-76
2023/04/29 00:05:12;;;;;;;32.25;22.17;;;;;;;14.24;66.70;100603.69;683004;29;1109;-76
2023/04/29 00:05:32;;;;;;;32.50;21.92;;;;;;;14.15;66.76;100615.00;680178;29;1055;-78
2023/04/29 00:05:53;;;;;;;31.95;22.45;;;;;;;14.34;66.65;100620.41;682975;29;1143;-77
2023/04/29 00:06:14;;;;;;;32.70;22.90;;;;;;;14.40;66.36;100615.22;677727;29;1033;-76
2023/04/29 00:06:35;;;;;;;32.83;23.52;;;;;;;14.48;66.21;100618.81;677663;29;1104;-77
2023/04/29 00:06:56;;;;;;;32.97;23.38;;;;;;;14.45;66.08;100618.75;682859;29;1238;-76
2023/04/29 00:07:16;;;;;;;32.00;22.83;;;;;;;14.38;66.01;100606.47;682900;29;1008;-77
2023/04/29 00:07:37;;;;;;;31.35;22.10;;;;;;;14.47;66.02;100617.06;680098;29;1155;-76
2023/04/29 00:07:57;;;;;;;30.40;22.15;;;;;;;14.49;66.00;100620.56;680406;29;840;-76
2023/04/29 00:08:18;;;;;;;30.30;22.47;;;;;;;14.50;65.96;100626.72;677650;29;1148;-77
2023/04/29 00:08:39;;;;;;;31.10;22.90;;;;;;;14.43;65.81;100617.00;677509;29;1974;-77
2023/04/29 00:08:59;;;;;;;34.28;23.27;;;;;;;14.41;66.00;100610.84;680394;29;902;-77
2023/04/29 00:09:20;;;;;;;34.63;23.40;;;;;;;14.50;65.60;100624.09;680170;29;1225;-76
2023/04/29 00:09:41;;;;;;;34.03;22.70;;;;;;;14.44;66.06;100614.38;677463;29;1382;-76
2023/04/29 00:10:02;;;;;;;31.85;22.83;;;;;;;14.48;65.68;100624.06;677589;29;1089;-76
2023/04/29 00:10:23;;;;;;;32.45;22.83;;;;;;;14.44;65.87;100617.00;677596;29;1113;-76
2023/04/29 00:10:43;;;;;;;33.43;23.60;;;;;;;14.44;65.79;100611.75;677595;29;1006;-77
2023/04/29 00:11:04;;;;;;;32.90;23.40;;;;;;;14.48;65.79;100610.03;680629;28;1201;-77
2023/04/29 00:11:24;;;;;;;33.10;23.70;;;;;;;14.52;65.82;100625.84;682717;28;1236;-77
2023/04/29 00:11:46;;;;;;;33.70;23.20;;;;;;;14.57;65.92;100635.50;682958;28;1151;-78
2023/04/29 00:12:07;;;;;;;34.80;23.75;;;;;;;14.55;65.74;100618.88;680263;29;1106;-77
2023/04/29 00:12:29;;;;;;;34.70;24.00;;;;;;;14.49;65.87;100625.81;680018;29;1148;-78
2023/04/29 00:12:50;;;;;;;34.95;24.65;;;;;;;14.59;65.84;100631.16;685586;28;1047;-78
2023/04/29 00:13:12;;;;;;;33.65;24.33;;;;;;;14.44;65.48;100601.25;683058;28;1088;-78
2023/04/29 00:13:32;;;;;;;33.47;23.90;;;;;;;14.29;66.13;100629.97;682790;28;1179;-78
2023/04/29 00:13:53;;;;;;;32.55;23.48;;;;;;;14.25;66.44;100621.19;680217;29;878;-78
2023/04/29 00:14:14;;;;;;;35.57;23.97;;;;;;;14.25;66.68;100624.72;685615;28;1050;-78
2023/04/29 00:14:34;;;;;;;36.35;23.92;;;;;;;14.05;66.65;100619.22;685406;28;1068;-78
2023/04/29 00:14:55;;;;;;;38.40;24.80;;;;;;;13.97;67.08;100613.00;680327;29;840;-77
2023/04/29 00:15:16;;;;;;;36.30;24.40;;;;;;;13.88;67.14;100613.75;680264;29;1100;-77
2023/04/29 00:15:36;;;;;;;35.95;24.45;;;;;;;13.97;67.13;100616.50;680166;29;1091;-76
2023/04/29 00:15:57;;;;;;;34.97;24.02;;;;;;;13.87;67.63;100613.78;680292;29;970;-78
2023/04/29 00:16:17;;;;;;;33.72;23.83;;;;;;;13.89;67.78;100620.75;683213;28;1112;-77
2023/04/29 00:16:38;;;;;;;34.93;24.47;;;;;;;13.88;67.87;100626.88;683436;28;1016;-78
2023/04/29 00:16:59;;;;;;;35.25;24.67;;;;;;;13.87;67.58;100627.75;682573;29;1320;-78
2023/04/29 00:17:20;;;;;;;37.80;25.10;;;;;;;13.80;67.94;100618.94;680097;29;1249;-78
2023/04/29 00:17:40;;;;;;;38.63;25.00;;;;;;;13.69;68.09;100610.94;680156;29;958;-78
2023/04/29 00:18:01;;;;;;;37.93;24.50;;;;;;;13.70;67.95;100612.69;680372;29;1190;-77
2023/04/29 00:18:22;;;;;;;37.83;25.25;;;;;;;13.81;67.99;100625.94;680025;29;1301;-79
2023/04/29 00:18:43;;;;;;;36.65;25.65;;;;;;;13.77;68.06;100623.25;680139;29;1405;-77
2023/04/29 00:19:03;;;;;;;36.50;25.42;;;;;;;13.75;67.93;100617.97;677649;29;1205;-77
2023/04/29 00:19:24;;;;;;;35.43;24.80;;;;;;;13.84;68.16;100635.59;680062;29;1178;-77
2023/04/29 00:19:44;;;;;;;36.40;24.27;;;;;;;13.79;68.12;100627.66;682835;28;1061;-76
2023/04/29 00:20:06;;;;;;;38.47;25.27;;;;;;;13.83;68.05;100626.81;680073;29;1292;-77
2023/04/29 00:20:27;;;;;;;38.30;25.48;;;;;;;13.84;67.91;100619.84;682693;28;2004;-77
2023/04/29 00:20:47;;;;;;;36.73;25.53;;;;;;;13.96;67.96;100625.22;682823;28;1132;-77
2023/04/29 00:21:09;;;;;;;37.00;25.80;;;;;;;13.96;67.70;100625.22;680348;29;1388;-78
2023/04/29 00:21:30;;;;;;;37.20;25.75;;;;;;;14.02;67.51;100628.78;679976;28;1426;-78
2023/04/29 00:21:51;;;;;;;38.63;26.10;;;;;;;14.08;67.35;100631.50;682902;28;1013;-77
2023/04/29 00:22:11;;;;;;;38.53;26.10;;;;;;;14.05;67.20;100628.81;680182;29;1257;-78
2023/04/29 00:22:32;;;;;;;38.45;26.52;;;;;;;14.13;67.18;100637.69;685383;28;1299;-77
2023/04/29 00:22:52;;;;;;;37.70;26.67;;;;;;;14.20;67.11;100633.41;682743;28;1207;-77
2023/04/29 00:23:13;;;;;;;36.93;25.33;;;;;;;14.10;67.00;100627.13;680229;29;1131;-78
2023/04/29 00:23:34;;;;;;;36.42;24.67;;;;;;;14.12;67.23;100635.94;679943;29;1081;-78
2023/04/29 00:23:55;;;;;;;36.85;24.30;;;;;;;14.09;67.39;100636.72;677692;29;834;-78
2023/04/29 00:24:16;;;;;;;37.90;25.85;;;;;;;14.04;66.99;100627.06;680102;29;1190;-77
2023/04/29 00:24:37;;;;;;;38.65;26.50;;;;;;;14.10;67.31;100632.38;682671;28;1166;-77
2023/04/29 00:24:57;;;;;;;39.00;26.80;;;;;;;14.13;66.85;100627.19;682838;29;1225;-78
2023/04/29 00:25:18;;;;;;;39.40;26.65;;;;;;;14.08;67.10;100618.38;680143;29;1153;-78
2023/04/29 00:25:38;;;;;;;38.47;26.30;;;;;;;14.09;66.94;100622.75;682619;28;1212;-77
2023/04/29 00:25:59;;;;;;;38.10;26.50;;;;;;;14.04;66.97;100621.81;685610;28;1027;-77
2023/04/29 00:26:19;;;;;;;37.80;26.20;;;;;;;14.07;66.69;100621.88;682714;28;1111;-78
2023/04/29 00:26:42;;;;;;;39.08;26.77;;;;;;;14.03;67.00;100631.44;680106;29;1097;-77
2023/04/29 00:27:18;;;;;;;39.50;26.40;;;;;;;14.06;67.12;100622.69;680294;29;877;-77
2023/04/29 00:27:39;;;;;;;38.47;26.38;;;;;;;14.09;67.29;100626.25;677463;29;1129;-78
2023/04/29 00:28:01;;;;;;;37.85;26.85;;;;;;;14.05;67.13;100626.19;680296;29;785;-78
2023/04/29 00:28:21;;;;;;;37.75;26.52;;;;;;;14.02;67.10;100623.53;685483;28;1098;-77
2023/04/29 00:28:42;;;;;;;38.05;26.30;;;;;;;14.05;67.00;100624.47;685387;28;1922;-77
2023/04/29 00:29:03;;;;;;;39.20;26.75;;;;;;;14.03;67.23;100620.94;688226;28;1212;-77
2023/04/29 00:29:24;;;;;;;41.13;27.37;;;;;;;14.05;66.83;100627.09;685427;28;1104;-78
2023/04/29 00:29:45;;;;;;;41.43;27.20;;;;;;;14.03;67.14;100633.19;682769;29;1514;-78
2023/04/29 00:30:07;;;;;;;40.92;26.88;;;;;;;14.05;66.95;100639.31;680237;29;1028;-77
2023/04/29 00:30:27;;;;;;;41.53;27.15;;;;;;;14.06;67.02;100630.56;679097;29;1391;-77
2023/04/29 00:30:48;;;;;;;40.00;27.05;;;;;;;14.01;67.11;100637.53;677670;29;1200;-78
2023/04/29 00:31:09;;;;;;;40.97;27.20;;;;;;;14.06;67.05;100630.56;680249;29;1232;-77
2023/04/29 00:31:31;;;;;;;39.60;27.15;;;;;;;14.04;66.99;100627.94;685340;28;1151;-78
2023/04/29 00:31:52;;;;;;;39.80;28.08;;;;;;;14.00;66.95;100625.28;680111;29;1209;-77
2023/04/29 00:32:12;;;;;;;37.43;27.13;;;;;;;14.10;67.13;100642.88;682910;29;1055;-77
2023/04/29 00:32:33;;;;;;;38.20;27.00;;;;;;;14.04;67.13;100633.19;680073;29;1104;-77
2023/04/29 00:32:54;;;;;;;39.10;26.73;;;;;;;13.98;67.08;100628.78;685513;28;755;-77
2023/04/29 00:33:14;;;;;;;41.17;27.60;;;;;;;14.00;67.12;100635.78;685306;28;1018;-77
2023/04/29 00:33:35;;;;;;;40.67;27.83;;;;;;;14.04;67.13;100632.31;687979;28;1175;-77
2023/04/29 00:33:56;;;;;;;43.65;27.92;;;;;;;14.05;67.13;100639.31;680172;29;1067;-77
2023/04/29 00:34:17;;;;;;;43.30;27.38;;;;;;;14.02;67.06;100639.28;680164;29;1025;-77
2023/04/29 00:34:38;;;;;;;42.90;27.20;;;;;;;14.03;67.26;100633.19;682740;29;994;-78
2023/04/29 00:34:59;;;;;;;40.73;27.50;;;;;;;14.04;66.94;100642.81;688300;28;780;-78
2023/04/29 00:35:20;;;;;;;41.45;27.80;;;;;;;14.03;67.00;100635.78;688086;28;1094;-78
2023/04/29 00:35:41;;;;;;;43.03;28.08;;;;;;;13.96;66.97;100630.47;680125;29;1108;-76
2023/04/29 00:36:02;;;;;;;43.90;28.63;;;;;;;13.98;66.97;100638.38;682859;29;1295;-78
2023/04/29 00:36:22;;;;;;;42.85;28.75;;;;;;;14.03;67.16;100636.69;682783;29;1071;-77
2023/04/29 00:36:44;;;;;;;42.92;29.00;;;;;;;14.03;67.17;100638.41;685287;28;1621;-78
2023/04/29 00:37:05;;;;;;;42.67;28.17;;;;;;;13.92;66.98;100639.19;685548;28;1258;-78
2023/04/29 00:37:25;;;;;;;45.20;29.35;;;;;;;13.98;67.17;100641.00;682548;28;1193;-79
2023/04/29 00:37:46;;;;;;;45.90;29.20;;;;;;;13.96;67.32;100648.84;682329;28;1270;-78
2023/04/29 00:38:07;;;;;;;47.08;29.88;;;;;;;13.91;67.34;100637.44;682799;28;1165;-77
2023/04/29 00:38:28;;;;;;;46.85;29.33;;;;;;;13.83;67.32;100633.84;688061;28;1024;-77
2023/04/29 00:38:48;;;;;;;45.63;28.97;;;;;;;13.81;67.50;100640.78;680136;28;1012;-78
2023/04/29 00:39:09;;;;;;;43.83;27.95;;;;;;;13.84;67.82;100632.97;677635;29;1222;-77
2023/04/29 00:39:30;;;;;;;42.20;27.92;;;;;;;13.95;67.60;100657.56;682597;29;1198;-78
2023/04/29 00:39:51;;;;;;;44.42;28.85;;;;;;;13.95;67.40;100651.47;685473;28;1399;-78
2023/04/29 00:40:15;;;;;;;44.50;29.27;;;;;;;13.79;67.54;100643.41;682855;28;1068;-78
2023/04/29 00:40:36;;;;;;;47.35;29.45;;;;;;;13.79;67.88;100643.41;685322;28;1008;-78
2023/04/29 00:40:56;;;;;;;47.75;29.25;;;;;;;13.89;67.76;100639.13;680085;29;1252;-78
2023/04/29 00:41:17;;;;;;;48.03;29.60;;;;;;;13.89;67.45;100646.13;677441;29;1175;-77
2023/04/29 00:41:38;;;;;;;46.05;29.88;;;;;;;13.88;67.55;100642.63;677521;29;1097;-78
2023/04/29 00:41:59;;;;;;;44.80;29.25;;;;;;;13.80;67.66;100649.50;680238;29;1180;-78
2023/04/29 00:42:20;;;;;;;43.67;28.75;;;;;;;13.71;67.44;100645.03;680056;29;1253;-77
2023/04/29 00:42:41;;;;;;;45.47;28.88;;;;;;;13.74;67.72;100641.56;679711;29;1210;-78
2023/04/29 00:43:02;;;;;;;47.35;29.38;;;;;;;13.76;67.36;100647.72;677613;29;1041;-77
2023/04/29 00:43:23;;;;;;;49.47;29.92;;;;;;;13.75;67.95;100645.97;680073;29;1385;-78
2023/04/29 00:43:43;;;;;;;49.67;30.15;;;;;;;13.70;67.98;100654.66;680070;29;1277;-77
2023/04/29 00:44:04;;;;;;;48.22;29.52;;;;;;;13.67;67.96;100648.47;680322;29;1143;-77
2023/04/29 00:44:24;;;;;;;46.83;29.20;;;;;;;13.70;68.14;100653.75;680090;29;1127;-77
2023/04/29 00:44:45;;;;;;;45.83;29.15;;;;;;;13.61;68.16;100644.03;677628;29;1023;-76
2023/04/29 00:45:15;;;;;;;43.95;29.20;;;;;;;13.62;68.07;100656.28;682760;28;1359;-76
2023/04/29 00:45:36;;;;;;;45.78;29.13;;;;;;;13.71;68.21;100655.53;679980;29;2171;-77
2023/04/29 00:45:57;;;;;;;45.25;29.13;;;;;;;13.57;68.09;100650.09;680261;29;861;-78
2023/04/29 00:46:17;;;;;;;47.00;29.63;;;;;;;13.57;68.55;100652.72;680099;29;1187;-77
2023/04/29 00:46:40;;;;;;;46.30;29.60;;;;;;;13.57;68.43;100650.97;677405;29;1173;-78
2023/04/29 00:47:00;;;;;;;49.33;30.58;;;;;;;13.53;68.26;100640.44;677664;29;805;-78
2023/04/29 00:47:21;;;;;;;48.47;30.45;;;;;;;13.60;68.37;100658.00;677425;29;1046;-77
2023/04/29 00:47:42;;;;;;;48.42;30.52;;;;;;;13.54;68.40;100652.69;677428;29;1216;-77
2023/04/29 00:48:03;;;;;;;46.90;29.70;;;;;;;13.57;68.66;100655.31;680072;29;1238;-77
2023/04/29 00:48:24;;;;;;;48.08;30.02;;;;;;;13.45;68.47;100668.28;677420;29;1267;-78
2023/04/29 00:48:44;;;;;;;47.63;29.92;;;;;;;13.34;68.91;100655.03;682679;28;1969;-77
2023/04/29 00:49:07;;;;;;;47.90;30.20;;;;;;;13.34;69.08;100661.13;682895;28;1060;-78
2023/04/29 00:49:27;;;;;;;47.42;29.90;;;;;;;13.24;69.20;100654.00;682585;28;1060;-78
2023/04/29 00:49:48;;;;;;;47.70;30.70;;;;;;;13.23;69.39;100649.63;677611;29;1202;-78
2023/04/29 00:50:09;;;;;;;47.90;30.65;;;;;;;13.24;69.62;100664.47;677663;29;977;-77
2023/04/29 00:50:30;;;;;;;48.13;30.60;;;;;;;13.20;69.85;100660.06;677433;29;1125;-77
2023/04/29 00:50:50;;;;;;;49.42;29.70;;;;;;;13.24;69.73;100661.84;680193;29;1184;-77
2023/04/29 00:51:12;;;;;;;49.40;29.55;;;;;;;13.30;69.55;100664.56;680227;29;1261;-77
2023/04/29 00:51:35;;;;;;;49.85;30.65;;;;;;;13.42;69.37;100661.25;680040;29;1108;-77
2023/04/29 00:51:57;;;;;;;50.55;31.55;;;;;;;13.41;69.06;100657.72;677646;29;913;-77
2023/04/29 00:52:18;;;;;;;50.83;31.85;;;;;;;13.50;68.94;100666.59;677424;29;1167;-77
2023/04/29 00:52:39;;;;;;;51.37;31.10;;;;;;;13.49;68.61;100662.22;679958;29;1224;-78
2023/04/29 00:53:00;;;;;;;50.20;30.83;;;;;;;13.63;68.65;100679.00;682959;29;862;-77
2023/04/29 00:53:22;;;;;;;50.65;31.55;;;;;;;13.61;68.50;100669.38;685437;28;1140;-77
2023/04/29 00:53:42;;;;;;;51.30;32.25;;;;;;;13.58;68.83;100659.72;682767;29;1254;-77
2023/04/29 00:54:04;;;;;;;51.10;31.63;;;;;;;13.60;68.17;100670.22;682819;29;1310;-77
2023/04/29 00:54:25;;;;;;;50.10;30.90;;;;;;;13.61;68.59;100659.78;682357;28;1509;-77
2023/04/29 00:54:47;;;;;;;50.05;31.05;;;;;;;13.61;68.48;100675.50;685524;28;1393;-77
2023/04/29 00:55:11;;;;;;;50.38;31.42;;;;;;;13.59;68.66;100674.59;682775;28;1152;-78
2023/04/29 00:55:32;;;;;;;51.90;31.73;;;;;;;13.56;68.64;100664.06;685212;28;1186;-77
2023/04/29 00:55:55;;;;;;;51.58;31.67;;;;;;;13.61;68.59;100675.50;682632;29;1255;-79
2023/04/29 00:56:43;;;;;;;51.58;31.90;;;;;;;13.67;68.50;100680.84;677460;29;1298;-77
2023/04/29 00:57:11;;;;;;;53.85;31.77;;;;;;;13.63;68.14;100665.91;680225;29;1172;-79
2023/04/29 00:57:33;;;;;;;54.63;32.30;;;;;;;13.55;68.26;100660.56;679954;29;1003;-77
2023/04/29 00:57:53;;;;;;;52.85;31.80;;;;;;;13.57;68.12;100668.44;682356;29;961;-78
2023/04/29 00:58:14;;;;;;;51.85;31.98;;;;;;;13.64;68.53;100675.53;680215;29;982;-77
2023/04/29 00:58:35;;;;;;;52.07;31.97;;;;;;;13.59;68.24;100663.22;679983;29;1097;-78
2023/04/29 00:59:11;;;;;;;54.38;32.38;;;;;;;13.58;68.10;100659.72;677583;29;825;-77
2023/04/29 00:59:48;;;;;;;55.05;32.53;;;;;;;13.70;68.07;100675.63;680122;29;1149;-77
2023/04/29 01:00:09;;;;;;;57.60;33.15;;;;;;;13.66;68.29;100673.81;680020;29;1346;-78
2023/04/29 01:00:31;;;;;;;55.53;31.95;;;;;;;13.66;68.48;100670.31;682548;28;1438;-77
2023/04/29 01:00:54;;;;;;;53.83;31.55;;;;;;;13.64;68.16;100679.91;679937;29;1320;-78
2023/04/29 01:01:16;;;;;;;52.67;31.60;;;;;;;13.47;68.57;100666.56;680128;29;1092;-77
2023/04/29 01:01:37;;;;;;;55.25;32.70;;;;;;;13.44;68.71;100662.16;679825;29;1169;-77
2023/04/29 01:02:02;;;;;;;57.38;33.30;;;;;;;13.47;68.65;100667.44;680164;29;900;-78
2023/04/29 01:02:24;;;;;;;59.05;33.35;;;;;;;13.57;68.80;100686.78;682561;29;1028;-77
2023/04/29 01:02:45;;;;;;;58.38;33.70;;;;;;;13.43;68.47;100665.63;680076;28;1454;-79
2023/04/29 01:03:08;;;;;;;59.95;35.08;;;;;;;13.49;68.47;100677.94;682646;29;1264;-78
2023/04/29 01:03:32;;;;;;;58.88;34.78;;;;;;;13.39;68.75;100675.19;676902;29;1350;-77
2023/04/29 01:03:53;;;;;;;59.30;34.47;;;;;;;13.34;68.90;100663.75;677447;29;1160;-77
2023/04/29 01:04:15;;;;;;;60.70;33.75;;;;;;;13.40;68.67;100661.22;680128;29;1247;-77
2023/04/29 01:04:35;;;;;;;61.53;34.47;;;;;;;13.38;68.75;100660.31;682418;28;1880;-76
2023/04/29 01:04:56;;;;;;;59.03;33.97;;;;;;;13.39;68.99;100674.31;680306;29;1237;-77
2023/04/29 01:05:17;;;;;;;56.50;34.17;;;;;;;13.39;68.86;100674.31;680603;29;1139;-78
2023/04/29 01:05:38;;;;;;;60.25;34.03;;;;;;;13.38;68.88;100665.56;677913;29;1108;-76
2023/04/29 01:06:33;;;;;;;61.97;34.13;;;;;;;13.39;68.86;100685.66;680713;29;1538;-77
2023/04/29 01:07:14;;;;;;;55.85;33.30;;;;;;;13.40;69.22;100684.81;680954;29;1221;-77
2023/04/29 01:07:59;;;;;;;56.97;33.63;;;;;;;13.37;69.05;100691.75;677820;29;1089;-77
2023/04/29 01:08:23;;;;;;;58.38;33.10;;;;;;;13.39;69.25;100690.06;677961;29;1152;-78
2023/04/29 01:09:21;;;;;;;58.65;33.50;;;;;;;13.34;69.12;100689.94;683188;28;1915;-77
2023/04/29 01:09:47;;;;;;;58.92;34.75;;;;;;;13.30;69.20;100696.03;683186;28;1044;-78
2023/04/29 01:10:32;;;;;;;58.60;34.25;;;;;;;13.19;69.35;100676.59;683346;28;1076;-77
2023/04/29 01:11:07;;;;;;;59.55;33.63;;;;;;;13.23;69.37;100689.81;677813;29;1195;-78
2023/04/29 01:11:38;;;;;;;58.08;32.30;;;;;;;13.24;69.69;100691.56;674344;29;1147;-77
2023/04/29 01:12:25;;;;;;;57.30;32.38;;;;;;;13.19;69.49;100684.47;683282;28;1469;-77
2023/04/29 01:13:04;;;;;;;58.92;33.30;;;;;;;13.25;69.52;100693.34;688548;28;1115;-77
2023/04/29 01:13:38;;;;;;;57.92;33.63;;;;;;;13.18;69.58;100690.56;680352;29;1129;-77
2023/04/29 01:14:04;;;;;;;58.22;33.00;;;;;;;13.26;69.34;100695.09;680743;29;841;-77
2023/04/29 01:14:26;;;;;;;59.05;32.80;;;;;;;13.21;69.39;100693.25;680498;29;1285;-78
2023/04/29 01:15:11;;;;;;;58.80;32.90;;;;;;;13.17;69.76;100684.47;678150;29;1298;-79
2023/04/29 01:16:02;;;;;;;57.65;32.15;;;;;;;13.27;69.56;100699.47;680020;29;1259;-78
2023/04/29 01:16:41;;;;;;;59.78;33.10;;;;;;;13.25;69.81;100702.91;680262;29;1030;-78
2023/04/29 01:17:13;;;;;;;55.63;33.20;;;;;;;13.19;69.78;100687.09;683284;29;1122;-78
2023/04/29 01:18:10;;;;;;;56.53;32.25;;;;;;;13.28;69.58;100700.38;682966;29;1122;-78
2023/04/29 01:18:35;;;;;;;59.08;33.65;;;;;;;13.14;69.77;100687.91;688339;28;1246;-78
2023/04/29 01:19:01;;;;;;;58.78;32.97;;;;;;;13.20;69.70;100699.38;683250;29;1772;-78
2023/04/29 01:19:46;;;;;;;57.58;31.63;;;;;;;13.28;69.65;100706.47;680340;29;1174;-78
2023/04/29 01:20:09;;;;;;;59.80;32.50;;;;;;;13.22;69.21;100687.16;678035;29;1212;-78
2023/04/29 01:20:31;;;;;;;59.92;32.38;;;;;;;13.26;69.70;100699.44;680313;28;1126;-78
2023/04/29 01:20:52;;;;;;;61.45;32.90;;;;;;;13.23;69.42;100688.91;685848;28;1374;-78
2023/04/29 01:21:13;;;;;;;60.67;33.60;;;;;;;13.23;69.47;100694.16;683289;29;1069;-78
2023/04/29 01:21:45;;;;;;;60.80;33.40;;;;;;;13.16;69.42;100685.34;682977;29;1135;-78
2023/04/29 01:22:06;;;;;;;57.88;33.08;;;;;;;13.22;69.43;100701.13;680613;29;1099;-79
2023/04/29 01:22:28;;;;;;;58.33;32.83;;;;;;;13.14;69.77;100690.53;680435;29;1259;-78
2023/04/29 01:22:49;;;;;;;56.22;31.77;;;;;;;13.12;69.88;100692.25;683210;28;1299;-78
2023/04/29 01:23:10;;;;;;;57.65;32.38;;;;;;;13.24;69.76;100695.91;686002;28;1206;-78
2023/04/29 01:23:32;;;;;;;56.63;32.33;;;;;;;13.19;69.86;100694.94;683143;29;1161;-78
2023/04/29 01:23:55;;;;;;;60.80;33.90;;;;;;;13.22;69.84;100693.25;683142;28;1098;-79
2023/04/29 01:24:17;;;;;;;61.25;33.40;;;;;;;13.14;69.84;100687.91;685847;28;1499;-78
2023/04/29 01:24:40;;;;;;;60.83;33.40;;;;;;;13.12;69.91;100683.50;682959;29;1351;-80
2023/04/29 01:25:01;;;;;;;60.30;33.60;;;;;;;13.14;69.71;100695.78;686017;28;1177;-78
2023/04/29 01:25:23;;;;;;;59.13;33.30;;;;;;;13.16;70.03;100704.53;680628;29;1151;-77
2023/04/29 01:26:05;;;;;;;57.55;31.67;;;;;;;13.09;69.81;100692.19;680339;29;1351;-77
2023/04/29 01:26:48;;;;;;;56.28;31.40;;;;;;;13.11;70.03;100694.84;677664;29;979;-78
2023/04/29 01:27:32;;;;;;;57.38;31.45;;;;;;;13.06;70.08;100679.06;683049;29;1012;-78
2023/04/29 01:28:13;;;;;;;55.78;31.23;;;;;;;13.12;69.90;100689.63;682404;29;987;-78
2023/04/29 01:28:52;;;;;;;55.92;32.15;;;;;;;13.22;69.81;100709.00;685581;28;1907;-79
2023/04/29 01:29:34;;;;;;;56.20;31.40;;;;;;;13.13;69.80;100691.41;685765;28;1441;-78
2023/04/29 01:30:01;;;;;;;54.80;31.33;;;;;;;13.15;69.69;100691.44;683213;29;1584;-78
2023/04/29 01:30:34;;;;;;;54.80;31.40;;;;;;;13.04;70.04;100699.13;683067;28;1587;-78
2023/04/29 01:31:19;;;;;;;55.40;32.60;;;;;;;13.11;70.25;100700.09;677936;29;1168;-78
2023/04/29 01:31:44;;;;;;;54.88;31.85;;;;;;;13.15;69.81;100713.25;677705;29;1206;-77
2023/04/29 01:32:08;;;;;;;57.83;31.73;;;;;;;13.11;69.95;100689.59;680413;29;1398;-78
2023/04/29 01:32:52;;;;;;;60.40;32.60;;;;;;;13.14;70.01;100698.41;683007;29;1091;-78
2023/04/29 01:33:21;;;;;;;59.17;32.13;;;;;;;13.21;70.14;100714.22;683204;29;1246;-79
2023/04/29 01:33:48;;;;;;;56.35;31.75;;;;;;;13.16;70.08;100712.41;683259;29;1120;-78
2023/04/29 01:34:44;;;;;;;57.45;31.88;;;;;;;13.16;70.12;100715.00;677887;28;1382;-79
2023/04/29 01:35:33;;;;;;;60.00;32.88;;;;;;;13.10;70.12;100699.19;682908;28;1261;-79
2023/04/29 01:36:12;;;;;;;61.20;34.10;;;;;;;13.18;69.97;100714.16;685779;28;891;-78
2023/04/29 01:37:04;;;;;;;65.60;34.30;;;;;;;13.20;70.13;100709.84;682854;28;2028;-79
2023/04/29 01:37:49;;;;;;;62.40;33.50;;;;;;;13.16;70.16;100714.16;677252;29;1292;-79
2023/04/29 01:38:30;;;;;;;64.65;35.03;;;;;;;13.16;69.99;100720.25;680508;29;1383;-79
2023/04/29 01:38:59;;;;;;;66.40;35.67;;;;;;;13.09;70.12;100696.56;672305;29;1383;-79
2023/04/29 01:39:53;;;;;;;70.18;37.40;;;;;;;13.16;70.42;100725.50;677766;29;1131;-79
2023/04/29 01:40:24;;;;;;;77.03;39.63;;;;;;;13.10;70.21;100699.19;680355;29;1204;-79
2023/04/29 01:41:18;;;;;;;81.82;40.90;;;;;;;13.14;70.36;100719.34;678432;29;1210;-78
2023/04/29 01:42:10;;;;;;;82.93;41.42;;;;;;;13.20;69.96;100725.56;677972;29;954;-78
2023/04/29 01:43:10;;;;;;;85.10;42.67;;;;;;;13.16;70.40;100729.88;685710;28;1165;-79
2023/04/29 01:43:34;;;;;;;82.20;41.30;;;;;;;13.01;70.17;100714.75;688220;28;1425;-78
2023/04/29 01:44:05;;;;;;;86.07;43.47;;;;;;;13.05;70.07;100715.69;683070;28;1405;-79
2023/04/29 01:44:28;;;;;;;88.35;43.92;;;;;;;13.07;69.97;100713.97;677745;29;1168;-79
2023/04/29 01:44:51;;;;;;;91.80;44.90;;;;;;;13.01;70.21;100709.53;680487;29;1042;-78
2023/04/29 01:45:16;;;;;;;91.53;45.13;;;;;;;13.03;70.12;100718.28;683179;28;1100;-79
2023/04/29 01:45:40;;;;;;;86.25;44.30;;;;;;;12.96;70.22;100711.19;688100;28;1292;-79
2023/04/29 01:46:03;;;;;;;88.65;43.63;;;;;;;13.04;70.25;100730.53;688614;28;989;-79
2023/04/29 01:46:23;;;;;;;90.30;43.13;;;;;;;13.01;70.24;100713.03;680362;28;1103;-79
2023/04/29 01:46:52;;;;;;;90.95;44.50;;;;;;;12.99;70.20;100711.25;685620;28;1268;-79
2023/04/29 01:47:14;;;;;;;93.03;45.45;;;;;;;12.91;70.23;100712.81;680466;29;1381;-78
2023/04/29 01:47:40;;;;;;;95.40;45.70;;;;;;;13.01;70.44;100725.25;680367;29;1151;-78
2023/04/29 01:48:03;;;;;;;96.07;46.20;;;;;;;12.92;70.30;100704.09;680606;29;1313;-78
2023/04/29 01:48:25;;;;;;;92.25;45.00;;;;;;;12.97;70.26;100724.31;680352;29;1265;-79
2023/04/29 01:48:46;;;;;;;98.05;45.40;;;;;;;12.98;69.96;100714.72;680513;29;1980;-78
2023/04/29 01:49:07;;;;;;;100.57;46.28;;;;;;;12.81;70.21;100710.03;683146;28;1241;-79
2023/04/29 01:49:28;;;;;;;100.70;46.15;;;;;;;12.90;70.30;100714.53;682967;28;1275;-79
2023/04/29 01:49:49;;;;;;;94.55;45.28;;;;;;;12.96;70.12;100724.28;680489;28;1196;-78
2023/04/29 01:50:10;;;;;;;95.17;45.80;;;;;;;12.97;70.17;100723.44;680618;29;1040;-78
2023/04/29 01:50:31;;;;;;;93.80;45.92;;;;;;;12.93;70.23;100713.72;677722;29;1364;-79
2023/04/29 01:51:00;;;;;;;91.82;45.13;;;;;;;12.92;70.22;100725.03;680601;28;1641;-79
2023/04/29 01:51:21;;;;;;;98.53;45.85;;;;;;;12.86;70.53;100716.22;683086;28;1595;-78
2023/04/29 01:51:42;;;;;;;101.10;46.42;;;;;;;12.87;70.22;100718.00;675159;29;1293;-79
2023/04/29 01:52:03;;;;;;;103.15;47.33;;;;;;;12.91;70.03;100718.06;677966;29;1210;-76
2023/04/29 01:52:24;;;;;;;99.80;47.53;;;;;;;12.89;69.86;100718.91;680781;28;1084;-79
2023/04/29 01:52:49;;;;;;;97.00;47.30;;;;;;;12.92;70.10;100725.03;677913;29;1185;-78
2023/04/29 01:53:09;;;;;;;96.43;46.40;;;;;;;13.00;69.83;100726.09;675404;29;986;-78
2023/04/29 01:53:30;;;;;;;97.03;45.20;;;;;;;12.95;70.22;100725.13;675148;29;1154;-78
2023/04/29 01:53:50;;;;;;;98.75;44.78;;;;;;;12.92;69.87;100719.81;675252;29;1193;-79
2023/04/29 01:54:12;;;;;;;95.97;43.72;;;;;;;12.89;70.09;100716.28;680510;28;1335;-78
2023/04/29 01:54:37;;;;;;;96.68;45.40;;;;;;;12.96;70.08;100732.16;677527;29;1330;-80
2023/04/29 01:54:58;;;;;;;88.22;44.25;;;;;;;12.89;69.88;100716.28;678147;29;797;-78
2023/04/29 01:55:23;;;;;;;87.30;44.25;;;;;;;13.02;69.92;100727.00;677808;29;1204;-78
2023/04/29 01:56:00;;;;;;;91.28;44.75;;;;;;;13.00;69.51;100718.25;680470;29;1245;-78
2023/04/29 01:56:23;;;;;;;90.85;45.10;;;;;;;12.96;69.54;100719.91;680386;28;1176;-78